Terminal Aerodrome Forecast
Issued by NWS

Current Version | Previous Version | Text Only | Print | Product List | Glossary On
Versions: 1 2 3 4 5 6 7 8 9 10 11 12 13
813
FTUS46 KSEW 250524
TAFBLI
TAF
KBLI 250524Z 2506/2606 VRB03KT P6SM SCT050
     FM251700 17006KT P6SM BKN040
     FM260000 16006KT P6SM -RA SCT015 OVC025=

USA.gov is the U.S. government's official web portal to all federal, state and local government web resources and services.